METAR Data
IDs: Format: Raw Decoded Include TAF

Data at: 0624 UTC 11 Dec 2018

PASH 110556Z AUTO 05015KT 5SM -SN BR FEW011 OVC021 M08/M09 A2902 RMK AO2 UPB0457E10SNB10 SLP827 P0000 60000 T10831094 11078 21094 56004 FZRANO
PASH 110456Z AUTO 05016KT 7SM BKN019 OVC025 M08/M09 A2902 RMK AO2 UPB13E16SNE13B16E56 SLP829 P0000 T10831094 FZRANO
PASH 110411Z AUTO 04015KT 6SM -SN BR SCT016 BKN021 OVC038 M08/M09 A2902 RMK AO2 P0000 FZRANO
PASH 110356Z AUTO 04016KT 9SM -SN FEW017 BKN040 OVC048 M08/M09 A2902 RMK AO2 SLP829 P0000 T10831094 FZRANO
PASH 110346Z AUTO 04014KT 8SM -SN SCT017 OVC048 M08/M09 A2903 RMK AO2 P0000 FZRANO
PASH 110256Z AUTO 05013KT 9SM -SN OVC018 M08/M10 A2903 RMK AO2 SLP832 P0000 60000 T10831100 56012 FZRANO
PASH 110156Z AUTO 05013KT 4SM -SN BR SCT016 OVC024 M09/M10 A2903 RMK AO2 SLP833 P0000 T10891100 FZRANO
PASH 110130Z AUTO 05012KT 3SM -SN BR BKN016 OVC026 M09/M10 A2904 RMK AO2 P0000 FZRANO
PASH 110117Z AUTO 05016KT 2SM -SN BR SCT016 BKN026 OVC032 M09/M10 A2904 RMK AO2 P0000 FZRANO
PASH 110056Z AUTO 05013KT 6SM -SN BR BKN016 BKN026 OVC031 M09/M10 A2905 RMK AO2 SLP839 P0000 T10891100 FZRANO
PASH 102356Z AUTO 04013KT 5SM -SN BR BKN012 OVC019 M09/M11 A2907 RMK AO2 SLP844 P0000 60000 T10941106 11094 21128 58011 FZRANO
PASH 102347Z AUTO 05014KT 4SM -SN BR SCT012 OVC019 M09/M11 A2907 RMK AO2 P0000 FZRANO
PASH 102321Z AUTO 05012KT 2SM -SN BR BKN015 OVC042 M09/M11 A2907 RMK AO2 P0000 FZRANO
PASH 102317Z AUTO 05013KT 1 3/4SM -SN BR BKN013 OVC042 M09/M11 A2907 RMK AO2 P0000 FZRANO
PASH 102307Z AUTO 05014KT 2 1/2SM -SN BR BKN013 OVC042 M09/M11 A2908 RMK AO2 P0000 FZRANO
PASH 102256Z AUTO 05012KT 9SM -SN BKN015 OVC042 M10/M11 A2908 RMK AO2 SLP847 P0000 T11001111 FZRANO
PASH 102156Z AUTO 06009KT 9SM -SN OVC017 M11/M12 A2909 RMK AO2 SLP851 P0000 T11061122 FZRANO
PASH 102056Z AUTO 06009KT 8SM -SN BKN015 OVC050 M11/M12 A2910 RMK AO2 SLP855 P0000 60000 T11111122 58004 FZRANO
PASH 102006Z AUTO 07004KT 8SM -SN BKN015 OVC049 M13/M14 A2910 RMK AO2 P0000 FZRANO
PASH 101956Z AUTO 08005KT 9SM -SN SCT015 OVC049 M13/M14 A2910 RMK AO2 SNB09 SLP857 P0000 T11281144 FZRANO
PASH 101856Z AUTO 08008KT 10SM OVC039 A2911 RMK AO2 SNE38 SLPNO P0000 FZRANO
PASH 101756Z AUTO 08008KT 9SM -SN OVC041 M13/M14 A2911 RMK AO2 SLP859 P0000 60000 T11281144 11128 21161 57002 FZRANO
PASH 101656Z AUTO 08008KT 9SM -SN OVC035 M13/M14 A2911 RMK AO2 SLP859 P0000 T11281139 FZRANO
PASH 101556Z AUTO 07009KT 6SM -SN BR OVC037 M13/M14 A2912 RMK AO2 SNB04E16B33 SLP861 P0000 T11281144 FZRANO
PASH 101535Z AUTO 07009KT 10SM -SN SCT019 OVC037 M13/M15 A2912 RMK AO2 SNB04E16B33 P0000 FZRANO
PASH 101511Z AUTO 07008KT 9SM -SN BKN019 OVC038 M13/M15 A2912 RMK AO2 SNB04 P0000 FZRANO
PASH 101456Z AUTO 07008KT 10SM FEW019 OVC038 M14/M16 A2912 RMK AO2 SNB09E36 SLP861 P0000 60000 T11391156 56002 FZRANO
PASH 101356Z AUTO 07009KT 10SM BKN042 BKN070 M16/M18 A2912 RMK AO2 SNE44 SLP861 P0000 T11611178 FZRANO
PASH 101256Z AUTO 07010KT 9SM -SN FEW024 OVC040 M14/M16 A2912 RMK AO2 SLP862 P0000 T11391156 FZRANO
PASH 101156Z AUTO 08009KT 9SM -SN OVC036 M14/M16 A2912 RMK AO2 SLP863 P0000 60000 T11391156 11133 21156 53002 FZRANO
PASH 101122Z AUTO 08009KT 5SM -SN BR FEW020 OVC034 M14/M16 A2912 RMK AO2 P0000 FZRANO
PASH 101056Z AUTO 08009KT 9SM -SN FEW018 OVC028 M13/M15 A2912 RMK AO2 SLP862 P0000 T11331150 FZRANO
PASH 100956Z AUTO 07008KT 7SM -SN BKN016 OVC028 M15/M17 A2912 RMK AO2 SLP861 P0000 T11501167 FZRANO
PASH 100856Z AUTO 08008KT 3SM -SN BR SCT021 BKN026 OVC031 M15/M17 A2912 RMK AO2 SLP861 P0000 60000 T11501167 410891167 51001 FZRANO
PASH 100853Z AUTO 07008KT 2 1/2SM -SN BR BKN026 OVC031 M15/M17 A2912 RMK AO2 P0000 410891167 FZRANO
PASH 100818Z AUTO 08008KT 6SM -SN BR BKN024 BKN029 OVC036 M14/M16 A2912 RMK AO2 P0000 FZRANO
PASH 100756Z AUTO 07008KT 6SM -SN BR OVC038 M14/M16 A2912 RMK AO2 SLP861 P0000 T11441156 FZRANO
PASH 100705Z AUTO 08006KT 4SM -SN BR FEW015 BKN034 OVC042 M15/M17 A2911 RMK AO2 P0000 FZRANO
PASH 100656Z AUTO 07006KT 2 1/2SM -SN BR FEW016 OVC034 M15/M17 A2911 RMK AO2 SLP860 P0000 T11501167 FZRANO
PASH 100556Z AUTO 07007KT 5SM -SN BR OVC046 M16/M17 A2911 RMK AO2 SLP860 P0000 60000 T11561172 11156 21167 53008 FZRANO
PASH 100456Z AUTO 08008KT 10SM -SN OVC044 M16/M17 A2910 RMK AO2 SNB00E25B52 SLP857 P0000 T11561172 FZRANO
PASH 100356Z AUTO 09005KT 9SM OVC044 M16/M17 A2909 RMK AO2 SNB42E52 SLP853 P0000 T11561172 FZRANO
PASH 100256Z AUTO 09005KT 10SM BKN035 OVC046 M16/M18 A2909 RMK AO2 SNE08 SLP852 P0000 60000 T11611178 56001 FZRANO
PASH 100156Z AUTO 12006KT 9SM -SN OVC050 M16/M18 A2909 RMK AO2 SLP851 P0000 T11611178 FZRANO
PASH 100056Z AUTO 13007KT 7SM -SN OVC050 M16/M17 A2909 RMK AO2 SLP851 P0000 T11561172 FZRANO
PASH 092356Z AUTO 11007KT 9SM -SN SCT044 OVC050 M16/M17 A2909 RMK AO2 SLP853 P0000 60000 T11561172 11089 21156 51001 FZRANO
PASH 092311Z AUTO 12008KT 5SM -SN BR FEW003 SCT007 OVC044 M13/M15 A2909 RMK AO2 P0000 FZRANO
PASH 092256Z AUTO 14010KT 5SM -SN BR SCT003 BKN007 OVC011 M13/M14 A2909 RMK AO2 SLP852 P0000 T11281139 FZRANO
PASH 092253Z AUTO 16009KT 3SM -SN BR SCT005 BKN010 OVC019 M13/M14 A2909 RMK AO2 P0000 FZRANO
PASH 092249Z AUTO 15009KT 1 1/2SM -SN BR FEW005 BKN010 OVC016 M13/M14 A2909 RMK AO2 CIG 007V014 P0000 FZRANO
PASH 092243Z AUTO 18011KT 1SM -SN BR BKN010 OVC018 M12/M14 A2909 RMK AO2 P0000 FZRANO
PASH 092231Z AUTO VRB05KT 1 1/4SM -SN BR BKN015 OVC022 M13/M14 A2909 RMK AO2 VIS 1V1 3/4 P0000 FZRANO
PASH 092224Z AUTO 17007KT 1SM -SN BR BKN015 OVC022 M13/M15 A2910 RMK AO2 P0000 FZRANO
PASH 092218Z AUTO 17003KT 1/2SM SN FZFG OVC015 M13/M15 A2910 RMK AO2 P0000 FZRANO
PASH 092211Z AUTO VRB04KT 3/4SM -SN BR FEW005 OVC015 M14/M15 A2910 RMK AO2 P0000 FZRANO
PASH 092159Z AUTO 11006KT 1 3/4SM -SN BR SCT005 OVC015 M13/M15 A2910 RMK AO2 VIS 1 1/4V3 P0000 FZRANO
PASH 092156Z AUTO 11006KT 2SM -SN BR BKN005 BKN015 OVC025 M13/M15 A2910 RMK AO2 VIS 1 1/4V3 CIG 003V007 SLP856 P0000 T11331150 FZRANO
PASH 092146Z AUTO 11008KT 6SM -SN BR BKN005 OVC014 M13/M14 A2910 RMK AO2 CIG 003V007 P0000 FZRANO
PASH 092138Z AUTO 11005KT 2 1/2SM -SN BR BKN005 OVC016 M11/M13 A2910 RMK AO2 VIS 1V5 P0000 FZRANO
PASH 092133Z AUTO 10006KT 3/4SM -SN BR BKN005 OVC014 M10/M12 A2909 RMK AO2 P0000 FZRANO
PASH 092126Z AUTO 04008KT 1/2SM SN FZFG SCT005 OVC014 M10/M11 A2909 RMK AO2 P0000 FZRANO
PASH 092116Z AUTO 36017KT 1/2SM SN FZFG BKN014 OVC019 M10/M11 A2909 RMK AO2 P0000 FZRANO
PASH 092108Z AUTO 35017KT 3/4SM -SN BR FEW006 OVC012 M10/M11 A2909 RMK AO2 P0000 FZRANO
PASH 092101Z AUTO 35016KT 1SM -SN BR SCT006 OVC012 M10/M11 A2909 RMK AO2 P0000 FZRANO
PASH 092056Z AUTO 35014G19KT 1 1/4SM -SN BR BKN006 OVC012 M11/M12 A2909 RMK AO2 CIG 005V010 SLP852 P0000 60000 T11061117 50001 FZRANO
PASH 092038Z AUTO 15004KT 1 1/4SM -SN BR OVC006 M12/M13 A2910 RMK AO2 CIG 005V009 P0000 FZRANO
PASH 092017Z AUTO 00000KT 3/4SM -SN BR OVC008 M12/M13 A2910 RMK AO2 P0000 FZRANO
PASH 092011Z AUTO 00000KT 1 1/4SM -SN BR OVC008 M12/M13 A2911 RMK AO2 P0000 FZRANO
PASH 092001Z AUTO 00000KT 2SM -SN BR BKN008 OVC013 M12/M13 A2911 RMK AO2 P0000 FZRANO
PASH 091956Z AUTO 16003KT 1 3/4SM -SN BR BKN011 OVC015 M12/M13 A2910 RMK AO2 CIG 007V012 SLP857 P0000 T11171133 FZRANO
PASH 091945Z AUTO 15003KT 1 1/4SM -SN BR OVC011 M12/M13 A2910 RMK AO2 P0000 FZRANO
PASH 091936Z AUTO 15003KT 1 1/2SM -SN BR BKN006 OVC014 M12/M13 A2910 RMK AO2 VIS 1V2 1/2 P0000 FZRANO
PASH 091919Z AUTO 15004KT 2 1/2SM -SN BR OVC006 M12/M13 A2910 RMK AO2 VIS 1 1/2V3 CIG 005V009 P0000 FZRANO
PASH 091905Z AUTO 16004KT 1 1/2SM -SN BR BKN006 OVC010 M12/M13 A2910 RMK AO2 P0000 FZRANO
PASH 091854Z AUTO 16004KT 1 1/2SM -SN BR SCT006 BKN010 OVC015 M12/M13 A2910 RMK AO2 CIG 009V012 SLP855 P0000 T11171128 FZRANO
PASH 091853Z AUTO 16004KT 1 3/4SM -SN BR FEW006 BKN010 OVC015 M12/M13 A2910 RMK AO2 CIG 009V012 P0000 FZRANO
PASH 091843Z AUTO 14004KT 2SM -SN BR FEW006 BKN015 OVC020 M11/M13 A2910 RMK AO2 VIS 1 1/4V3 P0000 FZRANO
PASH 091835Z AUTO 14006KT 2SM -SN BR FEW007 BKN014 OVC047 M11/M12 A2910 RMK AO2 P0000 FZRANO